North Albemarle, North Carolina
Current Conditions -  °F | °C
As of 8:15 PM on Thursday 27 Nov 2014 (Local Time) from KVUJ Reporting Station
Scattered Clouds Scattered Clouds  
Wind Chill:   Ceiling: Unl
Heat Index:   Visibility: 10mi
Dew Point: -2°   Wind: 0mph
Humidity: 68%   Direction: NA
Pressure: 30.28"   Gusts: NA
Location:  35.3503°N, 80.2174°W
Report Text: KVUJ 280115Z AUTO 00000KT 10SM SCT060 04/M02 A3028 RMK AO2 LTG DSNT E T00351020
Loading
Personal Weather Stations






























Interactive Weather Map New forecast layout! Learn more

10-Day Weather Forecast

Advertisements
Track Severe Weather on mobile